DIRAN Weather Reports


Display with metric or nautical units.
time (UTC)temp
F
wind
direction
speed
MPH
gust
MPH
rain 1hr
in
rain 24hr
in
rain mn
in
humidity
%
barometer
mb
20200331000444 54 124 2.0 5.0 0.00 0.00 0.00 35 1016.1
20200330235428 55 130 5.0 7.0 0.00 0.00 0.00 34 1016.0
20200330234425 54 122 3.0 4.0 0.00 0.00 0.00 39 1015.9
20200330233420 53 140 3.0 4.0 0.00 0.00 0.00 41 1015.9
20200330232433 53 184 3.0 4.0 0.00 0.00 0.00 41 1015.7
20200330231429 53 112 6.0 10.0 0.00 0.00 0.00 39 1015.5
20200330230424 54 184 2.0 3.0 0.00 0.00 0.00 37 1015.5
20200330225419 53 188 2.0 4.0 0.00 0.00 0.00 37 1015.4
20200330224424 54 194 3.0 6.0 0.00 0.00 0.00 37 1015.3
20200330223422 54 172 5.0 10.0 0.00 0.00 0.00 36 1015.2
20200330222438 54 188 5.0 8.0 0.00 0.00 0.00 37 1015.2
20200330221432 54 216 6.0 8.0 0.00 0.00 0.00 38 1015.2
20200330220427 54 172 7.0 11.0 0.00 0.00 0.00 36 1015.1
20200330215424 54 240 7.0 10.0 0.00 0.00 0.00 40 1015.1
20200330214440 54 244 6.0 10.0 0.00 0.00 0.00 39 1015.1
20200330213434 54 175 5.0 8.0 0.00 0.00 0.00 40 1015.0
20200330212422 54 207 5.0 10.0 0.00 0.00 0.00 41 1015.0
20200330211419 54 169 5.0 9.0 0.00 0.00 0.00 38 1015.0
20200330210432 54 145 4.0 14.0 0.00 0.00 0.00 36 1015.0
20200330205427 53 174 6.0 9.0 0.00 0.00 0.00 42 1015.1
20200330204419 52 160 6.0 10.0 0.00 0.00 0.00 41 1015.3
20200330203436 52 163 7.0 9.0 0.00 0.00 0.00 43 1015.3
20200330202428 52 159 5.0 13.0 0.00 0.00 0.00 43 1015.5
20200330201424 52 121 9.0 16.0 0.00 0.00 0.00 44 1015.4
20200330200422 51 105 4.0 10.0 0.00 0.00 0.00 48 1015.5
20200330195419 49 256 2.0 11.0 0.00 0.00 0.00 50 1015.9
20200330194434 50 321 7.0 17.0 0.00 0.00 0.00 46 1016.0
20200330193432 54 316 3.0 9.0 0.00 0.00 0.00 35 1015.8
20200330192428 55 113 3.0 9.0 0.00 0.00 0.00 33 1015.3
20200330191444 55 90 5.0 8.0 0.00 0.00 0.00 32 1015.3
20200330190432 54 103 2.0 10.0 0.00 0.00 0.00 32 1015.3
20200330185428 54 36 7.0 12.0 0.00 0.00 0.00 33 1015.3
20200330184445 54 90 7.0 11.0 0.00 0.00 0.00 34 1015.2
20200330183443 54 45 8.0 13.0 0.00 0.00 0.00 32 1015.4
20200330182430 55 51 8.0 17.0 0.00 0.00 0.00 31 1015.3
20200330181425 56 46 13.0 23.0 0.00 0.00 0.00 31 1015.1
20200330180423 57 103 11.0 16.0 0.00 0.00 0.00 31 1015.2
20200330175418 56 68 6.0 18.0 0.00 0.00 0.00 31 1015.3
20200330174433 55 257 3.0 9.0 0.00 0.00 0.00 34 1015.3
20200330173424 53 134 0.0 5.0 0.00 0.00 0.00 37 1015.3
20200330172420 52 155 1.0 4.0 0.00 0.00 0.00 40 1015.4
20200330171437 51 69 0.0 4.0 0.00 0.00 0.00 41 1015.6
20200330170432 50 174 1.0 5.0 0.00 0.00 0.00 41 1015.6
20200330165430 50 105 1.0 5.0 0.00 0.00 0.00 45 1015.7
20200330164426 48 123 3.0 5.0 0.00 0.00 0.00 43 1015.8
20200330163444 48 85 1.0 4.0 0.00 0.00 0.00 43 1015.9
20200330162441 47 143 2.0 7.0 0.00 0.00 0.00 43 1015.9
20200330161420 46 87 3.0 6.0 0.00 0.00 0.00 45 1015.9
20200330160419 46 84 2.0 4.0 0.00 0.00 0.00 47 1015.9
20200330155435 46 101 3.0 4.0 0.00 0.00 0.00 47 1015.8
20200330154433 47 98 1.0 2.0 0.00 0.00 0.00 45 1015.7
20200330153430 46 222 0.0 2.0 0.00 0.00 0.00 50 1015.6
20200330152427 43 124 0.0 0.0 0.00 0.00 0.00 51 1015.6
20200330151419 42 124 0.0 3.0 0.00 0.00 0.00 58 1015.7
20200330150430 41 118 2.0 3.0 0.00 0.00 0.00 61 1015.7
20200330145427 41 101 2.0 2.0 0.00 0.00 0.00 60 1015.8
20200330144425 40 100 0.0 2.0 0.00 0.00 0.00 63 1015.8
20200330143439 37 6 0.0 3.0 0.00 0.00 0.00 66 1015.7
20200330142438 36 353 1.0 3.0 0.00 0.00 0.00 67 1015.7
20200330141424 34 322 0.0 0.0 0.00 0.00 0.00 72 1015.7
20200330140418 34 322 1.0 2.0 0.00 0.00 0.00 71 1015.5
20200330135417 34 296 1.0 1.0 0.00 0.00 0.00 69 1015.3
20200330134431 34 296 0.0 0.0 0.00 0.00 0.00 69 1015.2
20200330133427 33 296 0.0 0.0 0.00 0.00 0.00 68 1015.4
20200330132422 32 296 0.0 1.0 0.00 0.00 0.00 69 1015.4
20200330131419 32 105 0.0 0.0 0.00 0.00 0.00 70 1015.2
20200330130437 31 105 0.0 1.0 0.00 0.00 0.00 71 1015.2
20200330125436 33 149 0.0 3.0 0.00 0.00 0.00 68 1015.2
20200330124433 32 259 2.0 3.0 0.00 0.00 0.00 72 1015.1
20200330123418 31 274 0.0 0.0 0.00 0.00 0.00 70 1015.1
20200330122444 33 165 0.0 0.0 0.00 0.00 0.00 66 1015.1
20200330121433 33 295 0.0 0.0 0.00 0.00 0.00 65 1015.0
20200330120431 34 293 0.0 0.0 0.00 0.00 0.00 65 1015.0
20200330115427 33 307 0.0 0.0 0.00 0.00 0.00 65 1014.9
20200330114420 34 307 0.0 1.0 0.00 0.00 0.00 65 1014.9
20200330113437 34 307 1.0 3.0 0.00 0.00 0.00 66 1014.9
20200330112434 34 287 1.0 2.0 0.00 0.00 0.00 67 1014.9
20200330111433 34 255 0.0 2.0 0.00 0.00 0.00 66 1015.0
20200330110431 35 355 2.0 5.0 0.00 0.00 0.00 65 1015.0
20200330105422 36 340 4.0 7.0 0.00 0.00 0.00 63 1015.0
20200330104421 36 335 5.0 6.0 0.00 0.00 0.00 65 1015.0
20200330103419 36 352 4.0 7.0 0.00 0.00 0.00 64 1015.1
20200330102417 35 342 3.0 6.0 0.00 0.00 0.00 64 1015.2
20200330101435 36 352 4.0 6.0 0.00 0.00 0.00 64 1015.2
20200330100432 34 333 3.0 3.0 0.00 0.00 0.00 69 1015.3
20200330095431 34 310 2.0 2.0 0.00 0.00 0.00 71 1015.4
20200330094419 34 229 1.0 2.0 0.00 0.00 0.00 69 1015.5
20200330093418 34 27 0.0 1.0 0.00 0.00 0.00 69 1015.5
20200330092436 34 63 0.0 4.0 0.00 0.00 0.00 69 1015.5
20200330091432 35 356 3.0 5.0 0.00 0.00 0.00 69 1015.5
20200330090430 34 359 2.0 5.0 0.00 0.00 0.00 70 1015.5
20200330085428 35 1 5.0 7.0 0.00 0.00 0.00 65 1015.4
20200330084423 35 356 3.0 4.0 0.00 0.00 0.00 67 1015.7
20200330083421 36 360 3.0 4.0 0.00 0.00 0.00 66 1015.8
20200330082439 36 350 3.0 5.0 0.00 0.00 0.00 65 1015.9
20200330081435 35 341 4.0 6.0 0.00 0.00 0.00 70 1015.8
20200330080420 33 345 4.0 5.0 0.00 0.00 0.00 73 1015.9
20200330075417 33 9 3.0 5.0 0.00 0.00 0.00 70 1016.1
20200330074432 33 354 4.0 5.0 0.00 0.00 0.00 69 1016.2
20200330073425 34 4 3.0 4.0 0.00 0.00 0.00 64 1016.1
20200330072421 35 6 4.0 6.0 0.00 0.00 0.00 61 1016.1
20200330071419 36 319 4.0 5.0 0.00 0.00 0.00 59 1016.1
20200330070435 35 323 4.0 4.0 0.00 0.00 0.00 63 1016.2
20200330065432 35 330 2.0 3.0 0.00 0.00 0.00 63 1016.2
20200330064430 35 332 2.0 5.0 0.00 0.00 0.00 63 1016.2
20200330063417 35 350 2.0 5.0 0.00 0.00 0.00 64 1016.3
20200330062444 35 359 4.0 6.0 0.00 0.00 0.00 64 1016.3
20200330061433 37 338 1.0 2.0 0.00 0.00 0.00 62 1016.4
20200330060430 37 326 1.0 5.0 0.00 0.00 0.00 61 1016.6
20200330055427 37 5 3.0 7.0 0.00 0.00 0.00 61 1016.7
20200330054423 38 354 0.0 4.0 0.00 0.00 0.00 55 1016.7
20200330053421 38 4 3.0 3.0 0.00 0.00 0.00 57 1016.8
20200330052439 39 326 1.0 3.0 0.00 0.00 0.00 54 1016.9
20200330051436 40 274 1.0 2.0 0.00 0.00 0.00 56 1017.1
20200330050434 40 257 1.0 3.0 0.00 0.00 0.00 53 1017.1
20200330045431 41 252 1.0 3.0 0.00 0.00 0.00 53 1017.2
20200330044429 41 275 1.0 2.0 0.00 0.00 0.00 52 1017.2
20200330043424 42 274 2.0 3.0 0.00 0.00 0.00 53 1017.4
20200330042420 42 243 2.0 4.0 0.00 0.00 0.00 49 1017.4
20200330041435 42 245 3.0 5.0 0.00 0.00 0.00 49 1017.4
20200330040432 41 236 3.0 4.0 0.00 0.00 0.00 52 1017.3
20200330035420 41 258 2.0 3.0 0.00 0.00 0.00 54 1017.3
20200330034417 41 279 2.0 4.0 0.00 0.00 0.00 55 1017.2
20200330033433 42 269 2.0 3.0 0.00 0.00 0.00 51 1017.3
20200330032429 42 276 2.0 4.0 0.00 0.00 0.00 50 1017.2
20200330031421 42 278 1.0 3.0 0.00 0.00 0.00 51 1017.1
20200330030435 43 290 2.0 3.0 0.00 0.00 0.00 51 1017.0
20200330025422 43 278 2.0 4.0 0.00 0.00 0.00 49 1016.9
20200330024434 43 185 0.0 2.0 0.00 0.00 0.00 45 1016.8
20200330023430 43 192 1.0 1.0 0.00 0.00 0.00 45 1016.8
20200330022425 45 133 1.0 2.0 0.00 0.00 0.00 41 1016.7
20200330021439 45 281 1.0 1.0 0.00 0.00 0.00 41 1016.5
20200330020438 43 289 0.0 1.0 0.00 0.00 0.00 44 1016.4
20200330015425 44 289 0.0 1.0 0.00 0.00 0.00 46 1016.3
20200330014423 43 290 1.0 1.0 0.00 0.00 0.00 46 1016.3
20200330013436 44 306 0.0 1.0 0.00 0.00 0.00 46 1016.2
20200330012431 45 307 0.0 1.0 0.00 0.00 0.00 46 1016.2
20200330011425 46 234 0.0 2.0 0.00 0.00 0.00 41 1016.2
20200330010421 47 212 1.0 1.0 0.00 0.00 0.00 39 1016.2
20200330005418 48 243 0.0 2.0 0.00 0.00 0.00 38 1016.2
20200330004443 48 248 2.0 3.0 0.00 0.00 0.00 37 1016.1
20200330003439 49 248 2.0 5.0 0.00 0.00 0.00 35 1016.1
20200330002428 49 212 3.0 5.0 0.00 0.00 0.00 33 1016.0
20200330001424 50 206 4.0 10.0 0.00 0.00 0.00 31 1016.0